sensor_id;sensor_type;location;lat;lon;timestamp;P1;durP1;ratioP1;P2;durP2;ratioP2
37805;SDS011;25082;50.870;0.022;2023-02-08T00:00:25;9.35;;;5.28;;
37805;SDS011;25082;50.870;0.022;2023-02-08T00:02:51;8.48;;;4.68;;
37805;SDS011;25082;50.870;0.022;2023-02-08T00:05:17;10.73;;;5.13;;
37805;SDS011;25082;50.870;0.022;2023-02-08T00:07:43;8.02;;;5.80;;
37805;SDS011;25082;50.870;0.022;2023-02-08T00:10:09;8.60;;;5.45;;
37805;SDS011;25082;50.870;0.022;2023-02-08T00:12:35;12.57;;;5.60;;
37805;SDS011;25082;50.870;0.022;2023-02-08T00:15:01;9.35;;;5.15;;
37805;SDS011;25082;50.870;0.022;2023-02-08T00:17:28;10.50;;;6.10;;
37805;SDS011;25082;50.870;0.022;2023-02-08T00:19:53;11.18;;;6.32;;
37805;SDS011;25082;50.870;0.022;2023-02-08T00:22:19;10.18;;;5.70;;
37805;SDS011;25082;50.870;0.022;2023-02-08T00:24:45;8.32;;;5.55;;
37805;SDS011;25082;50.870;0.022;2023-02-08T00:27:11;10.23;;;5.43;;
37805;SDS011;25082;50.870;0.022;2023-02-08T00:29:36;12.93;;;6.18;;
37805;SDS011;25082;50.870;0.022;2023-02-08T00:32:02;9.38;;;5.78;;
37805;SDS011;25082;50.870;0.022;2023-02-08T00:34:28;7.65;;;5.40;;
37805;SDS011;25082;50.870;0.022;2023-02-08T00:36:54;9.00;;;5.25;;
37805;SDS011;25082;50.870;0.022;2023-02-08T00:39:20;9.60;;;6.07;;
37805;SDS011;25082;50.870;0.022;2023-02-08T00:41:46;9.32;;;5.50;;
37805;SDS011;25082;50.870;0.022;2023-02-08T00:44:12;10.77;;;5.82;;
37805;SDS011;25082;50.870;0.022;2023-02-08T00:46:37;9.02;;;5.90;;
37805;SDS011;25082;50.870;0.022;2023-02-08T00:49:03;7.95;;;5.15;;
37805;SDS011;25082;50.870;0.022;2023-02-08T00:51:29;8.70;;;5.07;;
37805;SDS011;25082;50.870;0.022;2023-02-08T00:53:54;9.25;;;6.10;;
37805;SDS011;25082;50.870;0.022;2023-02-08T00:56:20;10.52;;;6.00;;
37805;SDS011;25082;50.870;0.022;2023-02-08T00:58:46;12.23;;;6.35;;
37805;SDS011;25082;50.870;0.022;2023-02-08T01:01:12;10.70;;;6.55;;
37805;SDS011;25082;50.870;0.022;2023-02-08T01:03:39;8.82;;;6.05;;
37805;SDS011;25082;50.870;0.022;2023-02-08T01:06:07;8.90;;;5.78;;
37805;SDS011;25082;50.870;0.022;2023-02-08T01:08:35;9.80;;;5.90;;
37805;SDS011;25082;50.870;0.022;2023-02-08T01:11:05;11.05;;;6.00;;
37805;SDS011;25082;50.870;0.022;2023-02-08T01:13:33;10.95;;;6.45;;
37805;SDS011;25082;50.870;0.022;2023-02-08T01:16:16;11.18;;;6.28;;
37805;SDS011;25082;50.870;0.022;2023-02-08T01:18:45;10.30;;;6.03;;
37805;SDS011;25082;50.870;0.022;2023-02-08T01:21:12;11.20;;;6.10;;
37805;SDS011;25082;50.870;0.022;2023-02-08T01:23:40;11.30;;;6.50;;
37805;SDS011;25082;50.870;0.022;2023-02-08T01:26:07;11.93;;;6.60;;
37805;SDS011;25082;50.870;0.022;2023-02-08T01:28:34;10.05;;;6.32;;
37805;SDS011;25082;50.870;0.022;2023-02-08T01:31:10;9.57;;;6.00;;
37805;SDS011;25082;50.870;0.022;2023-02-08T01:33:38;10.20;;;6.15;;
37805;SDS011;25082;50.870;0.022;2023-02-08T01:36:04;9.27;;;6.25;;
37805;SDS011;25082;50.870;0.022;2023-02-08T01:38:31;8.48;;;5.63;;
37805;SDS011;25082;50.870;0.022;2023-02-08T01:40:57;10.20;;;6.43;;
37805;SDS011;25082;50.870;0.022;2023-02-08T01:43:25;9.90;;;6.30;;
37805;SDS011;25082;50.870;0.022;2023-02-08T01:45:53;11.50;;;6.60;;
37805;SDS011;25082;50.870;0.022;2023-02-08T01:48:21;9.82;;;5.80;;
37805;SDS011;25082;50.870;0.022;2023-02-08T01:51:01;9.52;;;6.30;;
37805;SDS011;25082;50.870;0.022;2023-02-08T01:53:32;10.40;;;6.45;;
37805;SDS011;25082;50.870;0.022;2023-02-08T01:56:00;8.25;;;5.50;;
37805;SDS011;25082;50.870;0.022;2023-02-08T01:58:31;10.75;;;6.50;;
37805;SDS011;25082;50.870;0.022;2023-02-08T02:01:00;10.98;;;6.47;;
37805;SDS011;25082;50.870;0.022;2023-02-08T02:03:27;12.38;;;7.32;;
37805;SDS011;25082;50.870;0.022;2023-02-08T02:05:55;10.15;;;6.63;;
37805;SDS011;25082;50.870;0.022;2023-02-08T02:08:28;12.25;;;6.90;;
37805;SDS011;25082;50.870;0.022;2023-02-08T02:10:54;13.73;;;7.63;;
37805;SDS011;25082;50.870;0.022;2023-02-08T02:13:21;10.68;;;6.43;;
37805;SDS011;25082;50.870;0.022;2023-02-08T02:15:49;9.90;;;6.72;;
37805;SDS011;25082;50.870;0.022;2023-02-08T02:18:36;11.10;;;7.00;;
37805;SDS011;25082;50.870;0.022;2023-02-08T02:34:41;11.65;;;7.05;;
37805;SDS011;25082;50.870;0.022;2023-02-08T02:37:29;12.27;;;7.70;;
37805;SDS011;25082;50.870;0.022;2023-02-08T02:46:12;11.82;;;6.82;;
37805;SDS011;25082;50.870;0.022;2023-02-08T02:54:07;11.77;;;7.65;;
37805;SDS011;25082;50.870;0.022;2023-02-08T02:56:36;11.13;;;7.60;;
37805;SDS011;25082;50.870;0.022;2023-02-08T02:59:07;12.40;;;8.15;;
37805;SDS011;25082;50.870;0.022;2023-02-08T03:01:35;13.77;;;7.50;;
37805;SDS011;25082;50.870;0.022;2023-02-08T03:17:33;15.70;;;8.85;;
37805;SDS011;25082;50.870;0.022;2023-02-08T03:20:28;14.93;;;8.77;;
37805;SDS011;25082;50.870;0.022;2023-02-08T03:25:49;14.27;;;7.50;;
37805;SDS011;25082;50.870;0.022;2023-02-08T03:28:47;12.20;;;8.27;;
37805;SDS011;25082;50.870;0.022;2023-02-08T03:31:32;14.45;;;8.88;;
37805;SDS011;25082;50.870;0.022;2023-02-08T03:36:41;16.60;;;8.32;;
37805;SDS011;25082;50.870;0.022;2023-02-08T03:39:22;14.52;;;8.25;;
37805;SDS011;25082;50.870;0.022;2023-02-08T03:41:52;13.05;;;8.30;;
37805;SDS011;25082;50.870;0.022;2023-02-08T03:44:22;12.20;;;7.82;;
37805;SDS011;25082;50.870;0.022;2023-02-08T03:46:54;16.10;;;9.25;;
37805;SDS011;25082;50.870;0.022;2023-02-08T03:49:28;12.82;;;8.68;;
37805;SDS011;25082;50.870;0.022;2023-02-08T03:51:59;14.80;;;8.60;;
37805;SDS011;25082;50.870;0.022;2023-02-08T03:54:28;13.95;;;8.32;;
37805;SDS011;25082;50.870;0.022;2023-02-08T03:57:07;16.27;;;9.07;;
37805;SDS011;25082;50.870;0.022;2023-02-08T03:59:43;14.52;;;9.25;;
37805;SDS011;25082;50.870;0.022;2023-02-08T04:02:16;12.32;;;7.90;;
37805;SDS011;25082;50.870;0.022;2023-02-08T04:04:45;14.23;;;8.02;;
37805;SDS011;25082;50.870;0.022;2023-02-08T04:07:15;15.73;;;8.32;;
37805;SDS011;25082;50.870;0.022;2023-02-08T04:09:41;12.65;;;8.23;;
37805;SDS011;25082;50.870;0.022;2023-02-08T04:12:07;13.60;;;8.10;;
37805;SDS011;25082;50.870;0.022;2023-02-08T04:14:33;13.38;;;7.95;;
37805;SDS011;25082;50.870;0.022;2023-02-08T04:16:58;14.52;;;8.25;;
37805;SDS011;25082;50.870;0.022;2023-02-08T04:19:24;13.45;;;8.55;;
37805;SDS011;25082;50.870;0.022;2023-02-08T04:21:50;18.73;;;8.77;;
37805;SDS011;25082;50.870;0.022;2023-02-08T04:24:16;15.35;;;8.90;;
37805;SDS011;25082;50.870;0.022;2023-02-08T04:26:41;14.80;;;8.48;;
37805;SDS011;25082;50.870;0.022;2023-02-08T04:29:07;16.23;;;8.32;;
37805;SDS011;25082;50.870;0.022;2023-02-08T04:31:33;12.48;;;7.85;;
37805;SDS011;25082;50.870;0.022;2023-02-08T04:33:58;13.43;;;8.25;;
37805;SDS011;25082;50.870;0.022;2023-02-08T04:36:24;15.15;;;8.25;;
37805;SDS011;25082;50.870;0.022;2023-02-08T04:38:50;17.35;;;9.88;;
37805;SDS011;25082;50.870;0.022;2023-02-08T04:41:15;13.55;;;8.43;;
37805;SDS011;25082;50.870;0.022;2023-02-08T04:43:41;14.05;;;8.07;;
37805;SDS011;25082;50.870;0.022;2023-02-08T04:46:07;11.60;;;8.02;;
37805;SDS011;25082;50.870;0.022;2023-02-08T04:48:33;12.77;;;8.35;;
37805;SDS011;25082;50.870;0.022;2023-02-08T04:50:59;12.43;;;8.63;;
37805;SDS011;25082;50.870;0.022;2023-02-08T04:53:24;14.43;;;7.57;;
37805;SDS011;25082;50.870;0.022;2023-02-08T04:55:50;14.07;;;8.30;;
37805;SDS011;25082;50.870;0.022;2023-02-08T04:58:16;11.07;;;7.72;;
37805;SDS011;25082;50.870;0.022;2023-02-08T05:00:42;13.82;;;8.57;;
37805;SDS011;25082;50.870;0.022;2023-02-08T05:03:08;12.93;;;7.82;;
37805;SDS011;25082;50.870;0.022;2023-02-08T05:05:34;10.57;;;7.32;;
37805;SDS011;25082;50.870;0.022;2023-02-08T05:08:00;12.63;;;8.10;;
37805;SDS011;25082;50.870;0.022;2023-02-08T05:10:26;13.30;;;8.30;;
37805;SDS011;25082;50.870;0.022;2023-02-08T05:12:52;15.48;;;8.68;;
37805;SDS011;25082;50.870;0.022;2023-02-08T05:15:18;13.80;;;8.25;;
37805;SDS011;25082;50.870;0.022;2023-02-08T05:17:44;14.10;;;8.50;;
37805;SDS011;25082;50.870;0.022;2023-02-08T05:20:10;13.02;;;8.65;;
37805;SDS011;25082;50.870;0.022;2023-02-08T05:22:36;12.55;;;7.35;;
37805;SDS011;25082;50.870;0.022;2023-02-08T05:25:03;13.15;;;7.47;;
37805;SDS011;25082;50.870;0.022;2023-02-08T05:27:29;13.35;;;7.88;;
37805;SDS011;25082;50.870;0.022;2023-02-08T05:29:54;12.25;;;8.63;;
37805;SDS011;25082;50.870;0.022;2023-02-08T05:32:20;12.23;;;8.18;;
37805;SDS011;25082;50.870;0.022;2023-02-08T05:34:46;13.07;;;7.55;;
37805;SDS011;25082;50.870;0.022;2023-02-08T05:37:11;11.73;;;7.97;;
37805;SDS011;25082;50.870;0.022;2023-02-08T05:39:38;14.48;;;8.43;;
37805;SDS011;25082;50.870;0.022;2023-02-08T05:42:04;13.60;;;7.72;;
37805;SDS011;25082;50.870;0.022;2023-02-08T05:44:30;11.25;;;8.02;;
37805;SDS011;25082;50.870;0.022;2023-02-08T05:46:56;14.60;;;8.77;;
37805;SDS011;25082;50.870;0.022;2023-02-08T05:49:21;14.25;;;8.48;;
37805;SDS011;25082;50.870;0.022;2023-02-08T05:51:47;12.98;;;8.10;;
37805;SDS011;25082;50.870;0.022;2023-02-08T05:54:14;14.00;;;8.77;;
37805;SDS011;25082;50.870;0.022;2023-02-08T05:56:40;13.35;;;8.55;;
37805;SDS011;25082;50.870;0.022;2023-02-08T05:59:07;14.23;;;8.85;;
37805;SDS011;25082;50.870;0.022;2023-02-08T06:01:33;14.65;;;8.68;;
37805;SDS011;25082;50.870;0.022;2023-02-08T06:03:59;15.68;;;9.05;;
37805;SDS011;25082;50.870;0.022;2023-02-08T06:06:25;13.23;;;7.28;;
37805;SDS011;25082;50.870;0.022;2023-02-08T06:08:51;15.57;;;8.43;;
37805;SDS011;25082;50.870;0.022;2023-02-08T06:11:17;19.95;;;9.57;;
37805;SDS011;25082;50.870;0.022;2023-02-08T06:13:43;16.73;;;9.27;;
37805;SDS011;25082;50.870;0.022;2023-02-08T06:16:10;12.32;;;8.25;;
37805;SDS011;25082;50.870;0.022;2023-02-08T06:18:38;13.05;;;8.45;;
37805;SDS011;25082;50.870;0.022;2023-02-08T06:21:04;16.52;;;9.05;;
37805;SDS011;25082;50.870;0.022;2023-02-08T06:23:31;13.98;;;8.30;;
37805;SDS011;25082;50.870;0.022;2023-02-08T06:25:57;15.80;;;8.90;;
37805;SDS011;25082;50.870;0.022;2023-02-08T06:28:23;12.55;;;8.05;;
37805;SDS011;25082;50.870;0.022;2023-02-08T06:30:49;17.23;;;7.95;;
37805;SDS011;25082;50.870;0.022;2023-02-08T06:33:15;14.05;;;8.80;;
37805;SDS011;25082;50.870;0.022;2023-02-08T06:35:44;13.02;;;8.63;;
37805;SDS011;25082;50.870;0.022;2023-02-08T06:38:10;12.88;;;8.15;;
37805;SDS011;25082;50.870;0.022;2023-02-08T06:40:36;17.38;;;9.05;;
37805;SDS011;25082;50.870;0.022;2023-02-08T06:43:02;14.90;;;9.23;;
37805;SDS011;25082;50.870;0.022;2023-02-08T06:45:28;11.75;;;8.90;;
37805;SDS011;25082;50.870;0.022;2023-02-08T06:47:53;13.35;;;8.32;;
37805;SDS011;25082;50.870;0.022;2023-02-08T06:50:19;13.68;;;8.90;;
37805;SDS011;25082;50.870;0.022;2023-02-08T06:52:45;12.88;;;7.90;;
37805;SDS011;25082;50.870;0.022;2023-02-08T06:55:11;13.98;;;9.75;;
37805;SDS011;25082;50.870;0.022;2023-02-08T06:57:37;17.05;;;9.07;;
37805;SDS011;25082;50.870;0.022;2023-02-08T07:00:03;15.77;;;9.35;;
37805;SDS011;25082;50.870;0.022;2023-02-08T07:02:30;13.02;;;8.70;;
37805;SDS011;25082;50.870;0.022;2023-02-08T07:04:56;11.65;;;8.23;;
37805;SDS011;25082;50.870;0.022;2023-02-08T07:07:22;13.25;;;9.05;;
37805;SDS011;25082;50.870;0.022;2023-02-08T07:09:48;13.35;;;8.35;;
37805;SDS011;25082;50.870;0.022;2023-02-08T07:12:13;15.85;;;9.13;;
37805;SDS011;25082;50.870;0.022;2023-02-08T07:14:40;13.90;;;8.57;;
37805;SDS011;25082;50.870;0.022;2023-02-08T07:17:07;13.35;;;9.07;;
37805;SDS011;25082;50.870;0.022;2023-02-08T07:19:33;13.30;;;8.35;;
37805;SDS011;25082;50.870;0.022;2023-02-08T07:21:59;13.95;;;8.75;;
37805;SDS011;25082;50.870;0.022;2023-02-08T07:24:29;11.80;;;8.05;;
37805;SDS011;25082;50.870;0.022;2023-02-08T07:26:55;15.15;;;9.68;;
37805;SDS011;25082;50.870;0.022;2023-02-08T07:29:20;16.75;;;10.65;;
37805;SDS011;25082;50.870;0.022;2023-02-08T07:31:46;13.88;;;8.80;;
37805;SDS011;25082;50.870;0.022;2023-02-08T07:34:12;16.80;;;9.93;;
37805;SDS011;25082;50.870;0.022;2023-02-08T07:36:38;15.90;;;9.32;;
37805;SDS011;25082;50.870;0.022;2023-02-08T07:39:03;16.05;;;9.38;;
37805;SDS011;25082;50.870;0.022;2023-02-08T07:41:30;14.25;;;9.65;;
37805;SDS011;25082;50.870;0.022;2023-02-08T07:43:58;13.73;;;8.55;;
37805;SDS011;25082;50.870;0.022;2023-02-08T07:46:24;14.93;;;8.82;;
37805;SDS011;25082;50.870;0.022;2023-02-08T07:48:50;13.10;;;8.55;;
37805;SDS011;25082;50.870;0.022;2023-02-08T07:51:16;12.85;;;8.82;;
37805;SDS011;25082;50.870;0.022;2023-02-08T07:53:42;15.93;;;9.15;;
37805;SDS011;25082;50.870;0.022;2023-02-08T07:56:08;13.43;;;8.20;;
37805;SDS011;25082;50.870;0.022;2023-02-08T07:58:34;13.48;;;8.50;;
37805;SDS011;25082;50.870;0.022;2023-02-08T08:01:00;13.13;;;8.82;;
37805;SDS011;25082;50.870;0.022;2023-02-08T08:03:26;14.05;;;8.88;;
37805;SDS011;25082;50.870;0.022;2023-02-08T08:05:52;14.25;;;8.73;;
37805;SDS011;25082;50.870;0.022;2023-02-08T08:08:18;13.73;;;8.40;;
37805;SDS011;25082;50.870;0.022;2023-02-08T08:10:44;13.07;;;8.60;;
37805;SDS011;25082;50.870;0.022;2023-02-08T08:13:10;14.38;;;9.00;;
37805;SDS011;25082;50.870;0.022;2023-02-08T08:15:37;14.80;;;9.38;;
37805;SDS011;25082;50.870;0.022;2023-02-08T08:18:03;12.65;;;8.77;;
37805;SDS011;25082;50.870;0.022;2023-02-08T08:20:29;17.88;;;8.88;;
37805;SDS011;25082;50.870;0.022;2023-02-08T08:22:55;13.65;;;9.20;;
37805;SDS011;25082;50.870;0.022;2023-02-08T08:25:22;14.48;;;9.02;;
37805;SDS011;25082;50.870;0.022;2023-02-08T08:27:47;13.95;;;8.52;;
37805;SDS011;25082;50.870;0.022;2023-02-08T08:30:14;14.80;;;8.43;;
37805;SDS011;25082;50.870;0.022;2023-02-08T08:32:40;13.30;;;8.05;;
37805;SDS011;25082;50.870;0.022;2023-02-08T08:35:06;14.75;;;8.90;;
37805;SDS011;25082;50.870;0.022;2023-02-08T08:37:33;15.57;;;9.00;;
37805;SDS011;25082;50.870;0.022;2023-02-08T08:39:59;13.57;;;8.43;;
37805;SDS011;25082;50.870;0.022;2023-02-08T08:42:25;12.80;;;8.90;;
37805;SDS011;25082;50.870;0.022;2023-02-08T08:44:51;13.68;;;9.20;;
37805;SDS011;25082;50.870;0.022;2023-02-08T08:47:17;17.73;;;9.32;;
37805;SDS011;25082;50.870;0.022;2023-02-08T08:49:43;16.58;;;9.23;;
37805;SDS011;25082;50.870;0.022;2023-02-08T08:52:09;13.85;;;8.75;;
37805;SDS011;25082;50.870;0.022;2023-02-08T08:54:36;13.88;;;9.05;;
37805;SDS011;25082;50.870;0.022;2023-02-08T08:57:02;13.43;;;8.23;;
37805;SDS011;25082;50.870;0.022;2023-02-08T08:59:28;14.55;;;8.85;;
37805;SDS011;25082;50.870;0.022;2023-02-08T09:01:54;11.77;;;8.27;;
37805;SDS011;25082;50.870;0.022;2023-02-08T09:04:20;14.82;;;9.13;;
37805;SDS011;25082;50.870;0.022;2023-02-08T09:06:48;14.38;;;8.30;;
37805;SDS011;25082;50.870;0.022;2023-02-08T09:09:14;14.27;;;9.38;;
37805;SDS011;25082;50.870;0.022;2023-02-08T09:11:40;13.35;;;8.90;;
37805;SDS011;25082;50.870;0.022;2023-02-08T09:14:06;13.02;;;8.60;;
37805;SDS011;25082;50.870;0.022;2023-02-08T09:16:32;14.63;;;8.32;;
37805;SDS011;25082;50.870;0.022;2023-02-08T09:19:05;13.68;;;9.10;;
37805;SDS011;25082;50.870;0.022;2023-02-08T09:21:32;11.95;;;8.23;;
37805;SDS011;25082;50.870;0.022;2023-02-08T09:23:59;14.18;;;8.85;;
37805;SDS011;25082;50.870;0.022;2023-02-08T09:26:26;12.30;;;7.90;;
37805;SDS011;25082;50.870;0.022;2023-02-08T09:28:52;11.40;;;7.82;;
37805;SDS011;25082;50.870;0.022;2023-02-08T09:31:25;11.95;;;7.85;;
37805;SDS011;25082;50.870;0.022;2023-02-08T09:33:54;13.52;;;9.57;;
37805;SDS011;25082;50.870;0.022;2023-02-08T09:36:22;12.70;;;7.70;;
37805;SDS011;25082;50.870;0.022;2023-02-08T09:38:49;11.95;;;7.78;;
37805;SDS011;25082;50.870;0.022;2023-02-08T09:46:54;11.60;;;8.10;;
37805;SDS011;25082;50.870;0.022;2023-02-08T09:49:26;15.55;;;8.05;;
37805;SDS011;25082;50.870;0.022;2023-02-08T09:51:57;11.68;;;8.00;;
37805;SDS011;25082;50.870;0.022;2023-02-08T09:54:36;13.30;;;8.32;;
37805;SDS011;25082;50.870;0.022;2023-02-08T09:57:14;11.55;;;7.82;;
37805;SDS011;25082;50.870;0.022;2023-02-08T09:59:51;13.05;;;7.90;;
37805;SDS011;25082;50.870;0.022;2023-02-08T10:02:24;16.40;;;8.63;;
37805;SDS011;25082;50.870;0.022;2023-02-08T10:05:06;11.68;;;8.13;;
37805;SDS011;25082;50.870;0.022;2023-02-08T10:07:37;13.48;;;8.32;;
37805;SDS011;25082;50.870;0.022;2023-02-08T10:10:06;12.95;;;7.82;;
37805;SDS011;25082;50.870;0.022;2023-02-08T10:12:50;11.20;;;7.70;;
37805;SDS011;25082;50.870;0.022;2023-02-08T10:15:49;11.95;;;8.23;;
37805;SDS011;25082;50.870;0.022;2023-02-08T10:21:24;13.70;;;8.23;;
37805;SDS011;25082;50.870;0.022;2023-02-08T10:29:59;19.13;;;7.90;;
37805;SDS011;25082;50.870;0.022;2023-02-08T10:38:58;13.10;;;6.80;;
37805;SDS011;25082;50.870;0.022;2023-02-08T10:41:33;15.18;;;7.32;;
37805;SDS011;25082;50.870;0.022;2023-02-08T10:44:08;20.67;;;7.43;;
37805;SDS011;25082;50.870;0.022;2023-02-08T10:46:46;14.00;;;7.18;;
37805;SDS011;25082;50.870;0.022;2023-02-08T10:52:03;12.40;;;6.57;;
37805;SDS011;25082;50.870;0.022;2023-02-08T10:54:30;13.75;;;6.45;;
37805;SDS011;25082;50.870;0.022;2023-02-08T10:56:57;12.60;;;6.50;;
37805;SDS011;25082;50.870;0.022;2023-02-08T10:59:30;13.52;;;7.18;;
37805;SDS011;25082;50.870;0.022;2023-02-08T11:02:21;12.38;;;7.10;;
37805;SDS011;25082;50.870;0.022;2023-02-08T11:08:05;10.10;;;6.72;;
37805;SDS011;25082;50.870;0.022;2023-02-08T11:10:33;11.05;;;6.95;;
37805;SDS011;25082;50.870;0.022;2023-02-08T11:15:43;17.48;;;6.97;;
37805;SDS011;25082;50.870;0.022;2023-02-08T11:18:18;10.48;;;6.72;;
37805;SDS011;25082;50.870;0.022;2023-02-08T11:20:50;15.23;;;7.53;;
37805;SDS011;25082;50.870;0.022;2023-02-08T11:23:23;10.85;;;6.63;;
37805;SDS011;25082;50.870;0.022;2023-02-08T11:25:54;10.85;;;6.07;;
37805;SDS011;25082;50.870;0.022;2023-02-08T11:28:39;9.20;;;5.82;;
37805;SDS011;25082;50.870;0.022;2023-02-08T11:31:23;13.02;;;6.85;;
37805;SDS011;25082;50.870;0.022;2023-02-08T11:34:23;10.68;;;6.63;;
37805;SDS011;25082;50.870;0.022;2023-02-08T11:36:47;12.43;;;6.43;;
37805;SDS011;25082;50.870;0.022;2023-02-08T11:39:17;12.43;;;7.10;;
37805;SDS011;25082;50.870;0.022;2023-02-08T11:41:49;15.00;;;6.38;;
37805;SDS011;25082;50.870;0.022;2023-02-08T11:44:29;11.25;;;6.63;;
37805;SDS011;25082;50.870;0.022;2023-02-08T11:47:01;10.10;;;6.43;;
37805;SDS011;25082;50.870;0.022;2023-02-08T11:49:39;10.98;;;6.43;;
37805;SDS011;25082;50.870;0.022;2023-02-08T11:52:20;10.35;;;7.00;;
37805;SDS011;25082;50.870;0.022;2023-02-08T11:54:51;11.93;;;6.65;;
37805;SDS011;25082;50.870;0.022;2023-02-08T11:57:20;14.98;;;6.88;;
37805;SDS011;25082;50.870;0.022;2023-02-08T11:59:50;13.10;;;9.52;;
37805;SDS011;25082;50.870;0.022;2023-02-08T12:02:35;17.58;;;9.95;;
37805;SDS011;25082;50.870;0.022;2023-02-08T12:05:04;14.68;;;9.43;;
37805;SDS011;25082;50.870;0.022;2023-02-08T12:10:24;24.40;;;17.95;;
37805;SDS011;25082;50.870;0.022;2023-02-08T12:24:51;22.35;;;13.05;;
37805;SDS011;25082;50.870;0.022;2023-02-08T12:32:49;19.05;;;9.75;;
37805;SDS011;25082;50.870;0.022;2023-02-08T12:41:21;14.32;;;8.55;;
37805;SDS011;25082;50.870;0.022;2023-02-08T12:55:03;21.17;;;14.80;;
37805;SDS011;25082;50.870;0.022;2023-02-08T12:57:40;20.02;;;10.32;;
37805;SDS011;25082;50.870;0.022;2023-02-08T13:00:17;21.55;;;10.23;;
37805;SDS011;25082;50.870;0.022;2023-02-08T13:05:39;16.75;;;9.35;;
37805;SDS011;25082;50.870;0.022;2023-02-08T13:10:59;24.50;;;16.25;;
37805;SDS011;25082;50.870;0.022;2023-02-08T13:13:30;24.83;;;19.00;;
37805;SDS011;25082;50.870;0.022;2023-02-08T13:16:04;23.90;;;18.40;;
37805;SDS011;25082;50.870;0.022;2023-02-08T13:18:42;23.73;;;14.40;;
37805;SDS011;25082;50.870;0.022;2023-02-08T13:21:14;18.73;;;13.43;;
37805;SDS011;25082;50.870;0.022;2023-02-08T13:23:45;19.20;;;12.18;;
37805;SDS011;25082;50.870;0.022;2023-02-08T13:26:19;18.50;;;12.45;;
37805;SDS011;25082;50.870;0.022;2023-02-08T13:28:56;16.15;;;11.48;;
37805;SDS011;25082;50.870;0.022;2023-02-08T13:31:25;14.88;;;11.15;;
37805;SDS011;25082;50.870;0.022;2023-02-08T13:37:47;15.55;;;9.75;;
37805;SDS011;25082;50.870;0.022;2023-02-08T13:42:36;14.30;;;8.77;;
37805;SDS011;25082;50.870;0.022;2023-02-08T13:45:06;11.48;;;7.68;;
37805;SDS011;25082;50.870;0.022;2023-02-08T13:47:42;14.05;;;6.70;;
37805;SDS011;25082;50.870;0.022;2023-02-08T13:53:06;10.23;;;5.93;;
37805;SDS011;25082;50.870;0.022;2023-02-08T13:55:39;9.43;;;5.72;;
37805;SDS011;25082;50.870;0.022;2023-02-08T14:01:24;12.82;;;6.18;;
37805;SDS011;25082;50.870;0.022;2023-02-08T14:03:32;8.48;;;4.70;;
37805;SDS011;25082;50.870;0.022;2023-02-08T14:14:02;9.25;;;4.45;;
37805;SDS011;25082;50.870;0.022;2023-02-08T14:16:45;7.88;;;4.57;;
37805;SDS011;25082;50.870;0.022;2023-02-08T14:19:37;7.47;;;4.13;;
37805;SDS011;25082;50.870;0.022;2023-02-08T14:27:29;13.27;;;5.30;;
37805;SDS011;25082;50.870;0.022;2023-02-08T14:32:50;12.85;;;4.43;;
37805;SDS011;25082;50.870;0.022;2023-02-08T14:39:26;8.77;;;4.15;;
37805;SDS011;25082;50.870;0.022;2023-02-08T14:42:04;10.02;;;3.92;;
37805;SDS011;25082;50.870;0.022;2023-02-08T14:50:18;8.05;;;4.15;;
37805;SDS011;25082;50.870;0.022;2023-02-08T14:52:50;9.15;;;3.55;;
37805;SDS011;25082;50.870;0.022;2023-02-08T14:55:24;9.45;;;4.00;;
37805;SDS011;25082;50.870;0.022;2023-02-08T14:57:54;7.70;;;4.32;;
37805;SDS011;25082;50.870;0.022;2023-02-08T15:00:25;6.53;;;4.07;;
37805;SDS011;25082;50.870;0.022;2023-02-08T15:02:57;6.80;;;3.63;;
37805;SDS011;25082;50.870;0.022;2023-02-08T15:05:26;7.82;;;2.97;;
37805;SDS011;25082;50.870;0.022;2023-02-08T15:07:54;5.97;;;3.70;;
37805;SDS011;25082;50.870;0.022;2023-02-08T15:10:23;7.03;;;3.53;;
37805;SDS011;25082;50.870;0.022;2023-02-08T15:12:55;9.70;;;3.80;;
37805;SDS011;25082;50.870;0.022;2023-02-08T15:15:34;6.28;;;3.70;;
37805;SDS011;25082;50.870;0.022;2023-02-08T15:18:04;6.68;;;3.50;;
37805;SDS011;25082;50.870;0.022;2023-02-08T15:20:39;5.57;;;3.47;;
37805;SDS011;25082;50.870;0.022;2023-02-08T15:23:23;6.72;;;3.65;;
37805;SDS011;25082;50.870;0.022;2023-02-08T15:25:59;8.35;;;3.40;;
37805;SDS011;25082;50.870;0.022;2023-02-08T15:28:28;5.50;;;3.10;;
37805;SDS011;25082;50.870;0.022;2023-02-08T15:33:33;6.13;;;3.58;;
37805;SDS011;25082;50.870;0.022;2023-02-08T15:36:05;5.30;;;3.40;;
37805;SDS011;25082;50.870;0.022;2023-02-08T15:38:42;7.18;;;3.63;;
37805;SDS011;25082;50.870;0.022;2023-02-08T15:41:23;5.15;;;3.45;;
37805;SDS011;25082;50.870;0.022;2023-02-08T15:43:50;6.82;;;3.22;;
37805;SDS011;25082;50.870;0.022;2023-02-08T15:46:38;7.85;;;4.43;;
37805;SDS011;25082;50.870;0.022;2023-02-08T15:49:06;11.43;;;4.28;;
37805;SDS011;25082;50.870;0.022;2023-02-08T15:51:34;8.70;;;3.97;;
37805;SDS011;25082;50.870;0.022;2023-02-08T15:54:00;7.97;;;3.80;;
37805;SDS011;25082;50.870;0.022;2023-02-08T15:56:35;6.80;;;3.20;;
37805;SDS011;25082;50.870;0.022;2023-02-08T15:59:04;10.30;;;4.40;;
37805;SDS011;25082;50.870;0.022;2023-02-08T16:01:31;10.32;;;3.42;;
37805;SDS011;25082;50.870;0.022;2023-02-08T16:03:58;7.70;;;3.50;;
37805;SDS011;25082;50.870;0.022;2023-02-08T16:06:31;11.80;;;4.20;;
37805;SDS011;25082;50.870;0.022;2023-02-08T16:09:01;12.52;;;3.95;;
37805;SDS011;25082;50.870;0.022;2023-02-08T16:11:29;13.15;;;6.78;;
37805;SDS011;25082;50.870;0.022;2023-02-08T16:13:57;16.85;;;11.65;;
37805;SDS011;25082;50.870;0.022;2023-02-08T16:19:04;14.80;;;8.20;;
37805;SDS011;25082;50.870;0.022;2023-02-08T16:21:43;16.63;;;8.43;;
37805;SDS011;25082;50.870;0.022;2023-02-08T16:26:39;12.15;;;6.65;;
37805;SDS011;25082;50.870;0.022;2023-02-08T16:29:06;16.27;;;7.28;;
37805;SDS011;25082;50.870;0.022;2023-02-08T16:31:43;15.35;;;6.57;;
37805;SDS011;25082;50.870;0.022;2023-02-08T16:34:16;15.75;;;7.20;;
37805;SDS011;25082;50.870;0.022;2023-02-08T16:36:49;13.52;;;6.53;;
37805;SDS011;25082;50.870;0.022;2023-02-08T16:46:56;13.85;;;7.47;;
37805;SDS011;25082;50.870;0.022;2023-02-08T16:49:24;14.70;;;6.28;;
37805;SDS011;25082;50.870;0.022;2023-02-08T16:51:50;17.83;;;6.07;;
37805;SDS011;25082;50.870;0.022;2023-02-08T16:54:23;12.88;;;7.15;;
37805;SDS011;25082;50.870;0.022;2023-02-08T16:56:50;22.77;;;10.90;;
37805;SDS011;25082;50.870;0.022;2023-02-08T16:59:23;21.25;;;8.13;;
37805;SDS011;25082;50.870;0.022;2023-02-08T17:01:52;16.25;;;7.68;;
37805;SDS011;25082;50.870;0.022;2023-02-08T17:04:20;13.80;;;7.32;;
37805;SDS011;25082;50.870;0.022;2023-02-08T17:06:46;14.63;;;6.85;;
37805;SDS011;25082;50.870;0.022;2023-02-08T17:09:12;11.38;;;6.07;;
37805;SDS011;25082;50.870;0.022;2023-02-08T17:11:39;12.75;;;7.00;;
37805;SDS011;25082;50.870;0.022;2023-02-08T17:14:05;14.38;;;7.65;;
37805;SDS011;25082;50.870;0.022;2023-02-08T17:16:32;13.32;;;7.47;;
37805;SDS011;25082;50.870;0.022;2023-02-08T17:18:59;16.35;;;6.20;;
37805;SDS011;25082;50.870;0.022;2023-02-08T17:21:26;11.18;;;6.25;;
37805;SDS011;25082;50.870;0.022;2023-02-08T17:23:55;14.48;;;5.93;;
37805;SDS011;25082;50.870;0.022;2023-02-08T17:26:26;14.70;;;6.88;;
37805;SDS011;25082;50.870;0.022;2023-02-08T17:28:54;20.55;;;11.38;;
37805;SDS011;25082;50.870;0.022;2023-02-08T17:31:21;18.50;;;9.65;;
37805;SDS011;25082;50.870;0.022;2023-02-08T17:33:47;23.60;;;12.52;;
37805;SDS011;25082;50.870;0.022;2023-02-08T17:36:14;14.40;;;9.43;;
37805;SDS011;25082;50.870;0.022;2023-02-08T17:38:41;19.58;;;9.02;;